< < Back
Terminal Aerodrome Forecast


Current Version              Previous Versions:   1  2  3  4  5  6  7  8  9  

Terminal Aerodrome Forecast

166
FTUS42 KGSP 281438 AAA
TAFCLT
TAF AMD
KCLT 281438Z 2815/2912 30004KT P6SM -SHRA SCT007 OVC045
      TEMPO 2815/2819 4SM SHRA BKN007 OVC030
     FM281900 33004KT P6SM VCSH SCT020 OVC060
     FM282200 34004KT P6SM SCT060 BKN150
     FM290000 00000KT P6SM BKN250=

Latest METAR

154
SAUS70 KWBC 281500 RRO
MTRCLT
METAR KCLT 281452Z 33006KT 10SM BKN010 OVC042 24/22 A3004 RMK AO2 SLP164
T02440217 51010


USA.gov is the U.S. government's official web portal to all federal, state and local government web resources and services.